sensor_id;sensor_type;location;lat;lon;timestamp;pressure;altitude;pressure_sealevel;temperature;humidity
16355;BME280;8287;51.644;8.494;2023-04-22T00:02:02;99727.34;;;13.71;85.31
16355;BME280;8287;51.644;8.494;2023-04-22T00:04:29;99729.00;;;13.91;84.17
16355;BME280;8287;51.644;8.494;2023-04-22T00:06:55;99735.28;;;13.99;84.14
16355;BME280;8287;51.644;8.494;2023-04-22T00:09:22;99740.47;;;14.07;82.89
16355;BME280;8287;51.644;8.494;2023-04-22T00:11:49;99724.72;;;14.02;83.30
16355;BME280;8287;51.644;8.494;2023-04-22T00:14:16;99726.94;;;13.85;84.26
16355;BME280;8287;51.644;8.494;2023-04-22T00:16:43;99717.97;;;13.77;84.59
16355;BME280;8287;51.644;8.494;2023-04-22T00:19:11;99714.06;;;13.87;84.15
16355;BME280;8287;51.644;8.494;2023-04-22T00:21:37;99720.34;;;13.94;82.44
16355;BME280;8287;51.644;8.494;2023-04-22T00:24:04;99720.78;;;13.96;83.24
16355;BME280;8287;51.644;8.494;2023-04-22T00:26:31;99721.53;;;13.81;83.78
16355;BME280;8287;51.644;8.494;2023-04-22T00:28:58;99728.03;;;13.56;86.14
16355;BME280;8287;51.644;8.494;2023-04-22T00:31:24;99725.31;;;13.68;84.74
16355;BME280;8287;51.644;8.494;2023-04-22T00:33:51;99729.09;;;13.67;84.64
16355;BME280;8287;51.644;8.494;2023-04-22T00:36:19;99721.28;;;13.59;85.12
16355;BME280;8287;51.644;8.494;2023-04-22T00:38:48;99722.63;;;13.53;85.00
16355;BME280;8287;51.644;8.494;2023-04-22T00:41:15;99722.94;;;13.51;85.28
16355;BME280;8287;51.644;8.494;2023-04-22T00:43:42;99718.22;;;13.45;85.75
16355;BME280;8287;51.644;8.494;2023-04-22T00:46:08;99711.22;;;13.40;85.30
16355;BME280;8287;51.644;8.494;2023-04-22T00:48:36;99712.34;;;13.27;86.53
16355;BME280;8287;51.644;8.494;2023-04-22T00:51:03;99711.72;;;13.30;86.77
16355;BME280;8287;51.644;8.494;2023-04-22T00:53:32;99711.16;;;13.25;86.90
16355;BME280;8287;51.644;8.494;2023-04-22T00:55:58;99711.94;;;13.25;87.25
16355;BME280;8287;51.644;8.494;2023-04-22T00:58:28;99704.63;;;13.11;87.67
16355;BME280;8287;51.644;8.494;2023-04-22T01:00:54;99696.34;;;12.88;88.92
16355;BME280;8287;51.644;8.494;2023-04-22T01:03:21;99689.56;;;12.91;88.94
16355;BME280;8287;51.644;8.494;2023-04-22T01:05:48;99687.28;;;13.01;88.80
16355;BME280;8287;51.644;8.494;2023-04-22T01:08:15;99684.69;;;12.93;88.68
16355;BME280;8287;51.644;8.494;2023-04-22T01:10:43;99690.81;;;12.93;89.51
16355;BME280;8287;51.644;8.494;2023-04-22T01:13:10;99700.66;;;13.17;88.33
16355;BME280;8287;51.644;8.494;2023-04-22T01:15:36;99707.13;;;13.43;85.14
16355;BME280;8287;51.644;8.494;2023-04-22T01:18:03;99695.91;;;13.49;84.68
16355;BME280;8287;51.644;8.494;2023-04-22T01:20:30;99692.06;;;13.35;84.65
16355;BME280;8287;51.644;8.494;2023-04-22T01:22:57;99696.19;;;13.32;85.08
16355;BME280;8287;51.644;8.494;2023-04-22T01:25:26;99704.41;;;13.16;85.39
16355;BME280;8287;51.644;8.494;2023-04-22T01:27:52;99716.38;;;13.22;84.90
16355;BME280;8287;51.644;8.494;2023-04-22T01:30:19;99706.75;;;13.17;84.99
16355;BME280;8287;51.644;8.494;2023-04-22T01:32:46;99709.84;;;13.07;84.66
16355;BME280;8287;51.644;8.494;2023-04-22T01:35:13;99701.09;;;12.95;85.28
16355;BME280;8287;51.644;8.494;2023-04-22T01:37:39;99696.00;;;12.78;85.81
16355;BME280;8287;51.644;8.494;2023-04-22T01:40:08;99691.13;;;12.44;88.42
16355;BME280;8287;51.644;8.494;2023-04-22T01:42:36;99700.56;;;12.53;89.25
16355;BME280;8287;51.644;8.494;2023-04-22T01:45:04;99695.34;;;12.57;88.67
16355;BME280;8287;51.644;8.494;2023-04-22T01:47:31;99689.25;;;12.44;89.66
16355;BME280;8287;51.644;8.494;2023-04-22T01:49:58;99694.78;;;12.39;90.60
16355;BME280;8287;51.644;8.494;2023-04-22T01:52:25;99694.34;;;12.37;90.86
16355;BME280;8287;51.644;8.494;2023-04-22T01:54:52;99694.78;;;12.39;90.62
16355;BME280;8287;51.644;8.494;2023-04-22T01:57:19;99698.44;;;12.47;90.21
16355;BME280;8287;51.644;8.494;2023-04-22T01:59:47;99694.56;;;12.32;89.82
16355;BME280;8287;51.644;8.494;2023-04-22T02:02:14;99691.69;;;12.37;90.62
16355;BME280;8287;51.644;8.494;2023-04-22T02:04:40;99692.56;;;12.53;89.57
16355;BME280;8287;51.644;8.494;2023-04-22T02:07:07;99697.47;;;12.75;88.01
16355;BME280;8287;51.644;8.494;2023-04-22T02:09:33;99701.09;;;12.95;86.44
16355;BME280;8287;51.644;8.494;2023-04-22T02:12:00;99706.19;;;13.12;85.06
16355;BME280;8287;51.644;8.494;2023-04-22T02:14:26;99707.19;;;13.07;85.14
16355;BME280;8287;51.644;8.494;2023-04-22T02:16:54;99710.75;;;13.11;84.69
16355;BME280;8287;51.644;8.494;2023-04-22T02:19:21;99714.97;;;13.00;85.62
16355;BME280;8287;51.644;8.494;2023-04-22T02:21:47;99715.16;;;13.07;84.87
16355;BME280;8287;51.644;8.494;2023-04-22T02:24:14;99719.28;;;13.05;84.21
16355;BME280;8287;51.644;8.494;2023-04-22T02:26:40;99717.28;;;13.14;83.52
16355;BME280;8287;51.644;8.494;2023-04-22T02:29:07;99708.66;;;13.05;84.09
16355;BME280;8287;51.644;8.494;2023-04-22T02:31:34;99718.50;;;12.92;84.71
16355;BME280;8287;51.644;8.494;2023-04-22T02:34:02;99706.53;;;12.86;85.34
16355;BME280;8287;51.644;8.494;2023-04-22T02:36:29;99709.50;;;12.85;85.73
16355;BME280;8287;51.644;8.494;2023-04-22T02:38:56;99710.06;;;12.78;86.83
16355;BME280;8287;51.644;8.494;2023-04-22T02:41:22;99717.06;;;12.71;86.55
16355;BME280;8287;51.644;8.494;2023-04-22T02:43:49;99712.94;;;12.73;86.47
16355;BME280;8287;51.644;8.494;2023-04-22T02:46:16;99713.72;;;12.74;86.45
16355;BME280;8287;51.644;8.494;2023-04-22T02:48:42;99710.53;;;12.68;87.09
16355;BME280;8287;51.644;8.494;2023-04-22T02:51:10;99708.41;;;12.50;88.20
16355;BME280;8287;51.644;8.494;2023-04-22T02:53:37;99717.84;;;12.59;88.49
16355;BME280;8287;51.644;8.494;2023-04-22T02:56:04;99707.53;;;12.58;88.10
16355;BME280;8287;51.644;8.494;2023-04-22T02:58:31;99703.88;;;12.62;87.56
16355;BME280;8287;51.644;8.494;2023-04-22T03:00:57;99698.44;;;12.59;87.67
16355;BME280;8287;51.644;8.494;2023-04-22T03:03:24;99698.13;;;12.60;88.34
16355;BME280;8287;51.644;8.494;2023-04-22T03:05:50;99693.78;;;12.68;86.64
16355;BME280;8287;51.644;8.494;2023-04-22T03:08:19;99694.91;;;12.79;86.30
16355;BME280;8287;51.644;8.494;2023-04-22T03:10:45;99689.59;;;12.79;86.18
16355;BME280;8287;51.644;8.494;2023-04-22T03:13:12;99698.44;;;12.95;85.79
16355;BME280;8287;51.644;8.494;2023-04-22T03:15:39;99693.59;;;12.97;85.10
16355;BME280;8287;51.644;8.494;2023-04-22T03:18:05;99699.88;;;12.92;85.06
16355;BME280;8287;51.644;8.494;2023-04-22T03:20:32;99694.47;;;12.89;85.82
16355;BME280;8287;51.644;8.494;2023-04-22T03:22:59;99691.91;;;12.92;85.84
16355;BME280;8287;51.644;8.494;2023-04-22T03:25:27;99698.13;;;12.96;85.71
16355;BME280;8287;51.644;8.494;2023-04-22T03:27:53;99699.25;;;12.95;85.69
16355;BME280;8287;51.644;8.494;2023-04-22T03:30:20;99697.47;;;12.99;85.00
16355;BME280;8287;51.644;8.494;2023-04-22T03:32:47;99689.13;;;13.01;85.27
16355;BME280;8287;51.644;8.494;2023-04-22T03:35:13;99697.00;;;13.09;84.56
16355;BME280;8287;51.644;8.494;2023-04-22T03:37:40;99697.56;;;13.15;84.44
16355;BME280;8287;51.644;8.494;2023-04-22T03:40:08;99687.88;;;13.22;83.91
16355;BME280;8287;51.644;8.494;2023-04-22T03:42:36;99694.88;;;13.15;83.98
16355;BME280;8287;51.644;8.494;2023-04-22T03:45:03;99687.56;;;13.12;84.21
16355;BME280;8287;51.644;8.494;2023-04-22T03:47:30;99691.91;;;13.16;84.61
16355;BME280;8287;51.644;8.494;2023-04-22T03:49:56;99684.81;;;12.96;85.58
16355;BME280;8287;51.644;8.494;2023-04-22T03:52:23;99681.59;;;13.03;85.11
16355;BME280;8287;51.644;8.494;2023-04-22T03:54:50;99686.16;;;13.02;85.39
16355;BME280;8287;51.644;8.494;2023-04-22T03:57:16;99686.91;;;13.03;85.67
16355;BME280;8287;51.644;8.494;2023-04-22T03:59:44;99673.94;;;13.13;85.04
16355;BME280;8287;51.644;8.494;2023-04-22T04:02:11;99672.06;;;13.14;85.17
16355;BME280;8287;51.644;8.494;2023-04-22T04:04:37;99671.72;;;13.15;85.05
16355;BME280;8287;51.644;8.494;2023-04-22T04:07:05;99678.25;;;13.18;84.88
16355;BME280;8287;51.644;8.494;2023-04-22T04:09:32;99670.28;;;13.18;85.22
16355;BME280;8287;51.644;8.494;2023-04-22T04:11:58;99672.63;;;13.07;85.90
16355;BME280;8287;51.644;8.494;2023-04-22T04:14:25;99669.41;;;13.02;85.41
16355;BME280;8287;51.644;8.494;2023-04-22T04:16:53;99666.88;;;12.93;86.17
16355;BME280;8287;51.644;8.494;2023-04-22T04:19:19;99664.78;;;12.99;86.31
16355;BME280;8287;51.644;8.494;2023-04-22T04:21:46;99658.03;;;13.01;86.41
16355;BME280;8287;51.644;8.494;2023-04-22T04:24:12;99657.22;;;13.01;86.07
16355;BME280;8287;51.644;8.494;2023-04-22T04:26:39;99651.69;;;13.06;86.22
16355;BME280;8287;51.644;8.494;2023-04-22T04:29:06;99651.16;;;13.00;86.05
16355;BME280;8287;51.644;8.494;2023-04-22T04:31:33;99654.22;;;12.90;86.41
16355;BME280;8287;51.644;8.494;2023-04-22T04:34:01;99650.38;;;12.88;86.66
16355;BME280;8287;51.644;8.494;2023-04-22T04:36:27;99649.94;;;12.98;85.62
16355;BME280;8287;51.644;8.494;2023-04-22T04:38:54;99652.34;;;13.03;85.85
16355;BME280;8287;51.644;8.494;2023-04-22T04:41:21;99655.00;;;13.03;85.76
16355;BME280;8287;51.644;8.494;2023-04-22T04:43:47;99651.16;;;13.00;85.15
16355;BME280;8287;51.644;8.494;2023-04-22T04:46:14;99652.69;;;13.01;85.27
16355;BME280;8287;51.644;8.494;2023-04-22T04:48:41;99655.69;;;13.00;85.81
16355;BME280;8287;51.644;8.494;2023-04-22T04:51:11;99657.91;;;12.98;85.91
16355;BME280;8287;51.644;8.494;2023-04-22T04:53:39;99659.31;;;13.07;85.72
16355;BME280;8287;51.644;8.494;2023-04-22T04:56:06;99670.94;;;13.15;84.69
16355;BME280;8287;51.644;8.494;2023-04-22T04:58:32;99668.94;;;13.12;84.58
16355;BME280;8287;51.644;8.494;2023-04-22T05:00:59;99673.13;;;13.24;84.76
16355;BME280;8287;51.644;8.494;2023-04-22T05:03:25;99676.53;;;13.37;83.36
16355;BME280;8287;51.644;8.494;2023-04-22T05:05:52;99671.16;;;13.49;82.58
16355;BME280;8287;51.644;8.494;2023-04-22T05:08:20;99669.28;;;13.49;83.43
16355;BME280;8287;51.644;8.494;2023-04-22T05:10:47;99669.97;;;13.46;83.60
16355;BME280;8287;51.644;8.494;2023-04-22T05:13:13;99664.25;;;13.32;83.75
16355;BME280;8287;51.644;8.494;2023-04-22T05:15:40;99663.34;;;13.01;85.09
16355;BME280;8287;51.644;8.494;2023-04-22T05:18:07;99668.13;;;12.96;85.59
16355;BME280;8287;51.644;8.494;2023-04-22T05:20:34;99666.06;;;12.93;86.21
16355;BME280;8287;51.644;8.494;2023-04-22T05:23:00;99661.44;;;12.90;86.70
16355;BME280;8287;51.644;8.494;2023-04-22T05:25:28;99653.69;;;12.85;86.62
16355;BME280;8287;51.644;8.494;2023-04-22T05:27:55;99655.69;;;13.00;86.44
16355;BME280;8287;51.644;8.494;2023-04-22T05:30:22;99661.91;;;13.04;85.80
16355;BME280;8287;51.644;8.494;2023-04-22T05:32:48;99648.13;;;13.02;86.26
16355;BME280;8287;51.644;8.494;2023-04-22T05:35:15;99639.69;;;13.12;86.10
16355;BME280;8287;51.644;8.494;2023-04-22T05:37:41;99644.78;;;13.17;85.84
16355;BME280;8287;51.644;8.494;2023-04-22T05:40:08;99635.78;;;13.21;85.75
16355;BME280;8287;51.644;8.494;2023-04-22T05:42:36;99632.09;;;13.37;85.64
16355;BME280;8287;51.644;8.494;2023-04-22T05:45:04;99632.03;;;13.49;84.54
16355;BME280;8287;51.644;8.494;2023-04-22T05:47:30;99633.88;;;13.61;83.35
16355;BME280;8287;51.644;8.494;2023-04-22T05:49:57;99634.81;;;13.68;83.89
16355;BME280;8287;51.644;8.494;2023-04-22T05:52:24;99633.22;;;13.79;83.15
16355;BME280;8287;51.644;8.494;2023-04-22T05:54:50;99633.81;;;13.88;82.38
16355;BME280;8287;51.644;8.494;2023-04-22T05:57:17;99633.50;;;14.05;81.86
16355;BME280;8287;51.644;8.494;2023-04-22T05:59:45;99636.25;;;14.09;81.32
16355;BME280;8287;51.644;8.494;2023-04-22T06:02:11;99644.88;;;14.18;81.11
16355;BME280;8287;51.644;8.494;2023-04-22T06:04:38;99648.72;;;14.20;81.82
16355;BME280;8287;51.644;8.494;2023-04-22T06:07:04;99640.69;;;14.05;81.67
16355;BME280;8287;51.644;8.494;2023-04-22T06:09:31;99649.72;;;14.00;81.57
16355;BME280;8287;51.644;8.494;2023-04-22T06:11:57;99644.81;;;14.02;81.34
16355;BME280;8287;51.644;8.494;2023-04-22T06:14:24;99636.09;;;14.17;81.71
16355;BME280;8287;51.644;8.494;2023-04-22T06:16:52;99635.56;;;14.27;81.31
16355;BME280;8287;51.644;8.494;2023-04-22T06:19:18;99638.50;;;14.38;81.51
16355;BME280;8287;51.644;8.494;2023-04-22T06:21:45;99634.97;;;14.49;80.88
16355;BME280;8287;51.644;8.494;2023-04-22T06:24:12;99637.88;;;14.60;80.65
16355;BME280;8287;51.644;8.494;2023-04-22T06:26:38;99630.09;;;14.70;80.41
16355;BME280;8287;51.644;8.494;2023-04-22T06:29:05;99628.78;;;14.80;79.50
16355;BME280;8287;51.644;8.494;2023-04-22T06:31:31;99631.19;;;14.85;79.75
16355;BME280;8287;51.644;8.494;2023-04-22T06:33:59;99636.75;;;14.95;79.21
16355;BME280;8287;51.644;8.494;2023-04-22T06:36:26;99628.66;;;14.92;79.50
16355;BME280;8287;51.644;8.494;2023-04-22T06:38:55;99626.00;;;14.92;79.88
16355;BME280;8287;51.644;8.494;2023-04-22T06:41:22;99625.09;;;15.03;80.11
16355;BME280;8287;51.644;8.494;2023-04-22T06:43:48;99626.75;;;15.27;79.84
16355;BME280;8287;51.644;8.494;2023-04-22T06:46:15;99618.69;;;15.42;78.11
16355;BME280;8287;51.644;8.494;2023-04-22T06:48:42;99622.44;;;15.60;77.60
16355;BME280;8287;51.644;8.494;2023-04-22T06:51:10;99618.63;;;15.80;77.42
16355;BME280;8287;51.644;8.494;2023-04-22T06:53:37;99627.47;;;15.84;76.73
16355;BME280;8287;51.644;8.494;2023-04-22T06:56:04;99615.66;;;15.85;75.13
16355;BME280;8287;51.644;8.494;2023-04-22T06:58:30;99622.84;;;16.04;73.76
16355;BME280;8287;51.644;8.494;2023-04-22T07:00:57;99619.16;;;16.12;73.73
16355;BME280;8287;51.644;8.494;2023-04-22T07:03:24;99624.22;;;16.39;73.74
16355;BME280;8287;51.644;8.494;2023-04-22T07:05:50;99628.31;;;16.33;73.68
16355;BME280;8287;51.644;8.494;2023-04-22T07:08:18;99610.94;;;16.24;72.99
16355;BME280;8287;51.644;8.494;2023-04-22T07:10:45;99607.19;;;16.51;73.42
16355;BME280;8287;51.644;8.494;2023-04-22T07:13:11;99618.88;;;16.65;73.24
16355;BME280;8287;51.644;8.494;2023-04-22T07:15:38;99612.28;;;16.85;72.10
16355;BME280;8287;51.644;8.494;2023-04-22T07:18:05;99611.13;;;16.86;71.36
16355;BME280;8287;51.644;8.494;2023-04-22T07:20:31;99607.50;;;17.01;71.57
16355;BME280;8287;51.644;8.494;2023-04-22T07:22:58;99595.19;;;17.26;71.76
16355;BME280;8287;51.644;8.494;2023-04-22T07:25:25;99608.91;;;17.54;71.26
16355;BME280;8287;51.644;8.494;2023-04-22T07:27:52;99601.34;;;17.63;70.89
16355;BME280;8287;51.644;8.494;2023-04-22T07:30:19;99603.19;;;17.92;70.58
16355;BME280;8287;51.644;8.494;2023-04-22T07:32:45;99595.72;;;18.15;69.67
16355;BME280;8287;51.644;8.494;2023-04-22T07:35:12;99606.97;;;18.31;68.89
16355;BME280;8287;51.644;8.494;2023-04-22T07:37:38;99596.66;;;18.33;70.06
16355;BME280;8287;51.644;8.494;2023-04-22T07:40:06;99593.25;;;18.43;69.61
16355;BME280;8287;51.644;8.494;2023-04-22T07:42:37;99592.13;;;18.44;69.21
16355;BME280;8287;51.644;8.494;2023-04-22T07:45:05;99593.66;;;18.45;70.34
16355;BME280;8287;51.644;8.494;2023-04-22T07:47:31;99589.09;;;18.49;69.52
16355;BME280;8287;51.644;8.494;2023-04-22T07:49:58;99597.94;;;18.56;68.76
16355;BME280;8287;51.644;8.494;2023-04-22T07:52:25;99595.72;;;18.69;68.52
16355;BME280;8287;51.644;8.494;2023-04-22T07:54:51;99590.06;;;18.88;68.87
16355;BME280;8287;51.644;8.494;2023-04-22T07:57:18;99586.28;;;18.96;68.08
16355;BME280;8287;51.644;8.494;2023-04-22T07:59:47;99589.44;;;19.15;68.02
16355;BME280;8287;51.644;8.494;2023-04-22T08:02:14;99590.16;;;19.05;68.31
16355;BME280;8287;51.644;8.494;2023-04-22T08:04:41;99596.75;;;19.22;67.86
16355;BME280;8287;51.644;8.494;2023-04-22T08:07:07;99585.28;;;19.28;68.02
16355;BME280;8287;51.644;8.494;2023-04-22T08:09:34;99591.47;;;19.43;65.01
16355;BME280;8287;51.644;8.494;2023-04-22T08:12:00;99587.66;;;19.58;63.74
16355;BME280;8287;51.644;8.494;2023-04-22T08:14:27;99584.59;;;19.59;64.81
16355;BME280;8287;51.644;8.494;2023-04-22T08:16:55;99591.16;;;19.76;63.42
16355;BME280;8287;51.644;8.494;2023-04-22T08:19:22;99585.38;;;19.81;63.73
16355;BME280;8287;51.644;8.494;2023-04-22T08:21:48;99583.50;;;19.95;62.24
16355;BME280;8287;51.644;8.494;2023-04-22T08:24:15;99591.94;;;20.18;61.83
16355;BME280;8287;51.644;8.494;2023-04-22T08:26:42;99586.94;;;20.34;60.88
16355;BME280;8287;51.644;8.494;2023-04-22T08:29:09;99580.75;;;20.54;58.85
16355;BME280;8287;51.644;8.494;2023-04-22T08:31:35;99575.31;;;20.89;61.44
16355;BME280;8287;51.644;8.494;2023-04-22T08:34:03;99575.97;;;21.14;61.04
16355;BME280;8287;51.644;8.494;2023-04-22T08:36:30;99581.97;;;21.46;59.40
16355;BME280;8287;51.644;8.494;2023-04-22T08:38:57;99583.41;;;21.68;56.21
16355;BME280;8287;51.644;8.494;2023-04-22T08:41:23;99575.59;;;21.84;54.06
16355;BME280;8287;51.644;8.494;2023-04-22T08:43:52;99564.72;;;21.91;49.76
16355;BME280;8287;51.644;8.494;2023-04-22T08:46:18;99569.28;;;22.05;52.38
16355;BME280;8287;51.644;8.494;2023-04-22T08:48:46;99583.47;;;22.12;49.11
16355;BME280;8287;51.644;8.494;2023-04-22T08:51:16;99577.44;;;22.38;49.41
16355;BME280;8287;51.644;8.494;2023-04-22T08:53:43;99569.25;;;22.52;47.62
16355;BME280;8287;51.644;8.494;2023-04-22T08:56:10;99556.88;;;22.55;48.70
16355;BME280;8287;51.644;8.494;2023-04-22T08:58:38;99558.41;;;22.56;46.34
16355;BME280;8287;51.644;8.494;2023-04-22T09:01:06;99561.31;;;22.72;45.72
16355;BME280;8287;51.644;8.494;2023-04-22T09:03:33;99558.91;;;22.81;45.85
16355;BME280;8287;51.644;8.494;2023-04-22T09:06:03;99548.41;;;22.86;45.16
16355;BME280;8287;51.644;8.494;2023-04-22T09:08:31;99549.13;;;22.90;44.44
16355;BME280;8287;51.644;8.494;2023-04-22T09:10:58;99554.78;;;22.99;43.64
16355;BME280;8287;51.644;8.494;2023-04-22T09:13:25;99549.34;;;23.03;44.90
16355;BME280;8287;51.644;8.494;2023-04-22T09:15:52;99545.38;;;23.11;44.45
16355;BME280;8287;51.644;8.494;2023-04-22T09:18:19;99538.84;;;23.08;44.62
16355;BME280;8287;51.644;8.494;2023-04-22T09:20:47;99533.41;;;23.12;44.56
16355;BME280;8287;51.644;8.494;2023-04-22T09:23:14;99532.47;;;23.25;44.93
16355;BME280;8287;51.644;8.494;2023-04-22T09:25:43;99535.63;;;23.20;44.08
16355;BME280;8287;51.644;8.494;2023-04-22T09:28:15;99533.69;;;23.47;44.87
16355;BME280;8287;51.644;8.494;2023-04-22T09:30:43;99525.78;;;23.60;44.23
16355;BME280;8287;51.644;8.494;2023-04-22T09:33:11;99530.38;;;23.63;44.39
16355;BME280;8287;51.644;8.494;2023-04-22T09:35:40;99527.75;;;23.82;44.78
16355;BME280;8287;51.644;8.494;2023-04-22T09:38:09;99522.94;;;23.70;44.86
16355;BME280;8287;51.644;8.494;2023-04-22T09:40:39;99512.16;;;23.93;43.77
16355;BME280;8287;51.644;8.494;2023-04-22T09:43:08;99516.50;;;23.87;43.67
16355;BME280;8287;51.644;8.494;2023-04-22T09:45:36;99508.44;;;24.07;43.81
16355;BME280;8287;51.644;8.494;2023-04-22T09:48:06;99512.44;;;24.18;42.83
16355;BME280;8287;51.644;8.494;2023-04-22T09:50:33;99513.16;;;24.22;40.87
16355;BME280;8287;51.644;8.494;2023-04-22T09:53:01;99521.53;;;24.08;41.63
16355;BME280;8287;51.644;8.494;2023-04-22T09:55:30;99503.28;;;24.12;42.35
16355;BME280;8287;51.644;8.494;2023-04-22T09:57:57;99513.78;;;24.10;41.59
16355;BME280;8287;51.644;8.494;2023-04-22T10:00:31;99514.81;;;24.16;40.22
16355;BME280;8287;51.644;8.494;2023-04-22T10:02:57;99522.75;;;24.04;39.95
16355;BME280;8287;51.644;8.494;2023-04-22T10:05:24;99522.75;;;24.04;40.88
16355;BME280;8287;51.644;8.494;2023-04-22T10:07:51;99515.78;;;24.06;40.27
16355;BME280;8287;51.644;8.494;2023-04-22T10:10:18;99508.22;;;24.17;41.71
16355;BME280;8287;51.644;8.494;2023-04-22T10:12:46;99505.97;;;24.35;39.95
16355;BME280;8287;51.644;8.494;2023-04-22T10:15:12;99517.06;;;24.21;39.76
16355;BME280;8287;51.644;8.494;2023-04-22T10:17:41;99525.88;;;24.25;40.24
16355;BME280;8287;51.644;8.494;2023-04-22T10:20:10;99509.28;;;24.23;41.01
16355;BME280;8287;51.644;8.494;2023-04-22T10:22:40;99500.91;;;24.37;40.31
16355;BME280;8287;51.644;8.494;2023-04-22T10:25:12;99506.13;;;24.47;39.55
16355;BME280;8287;51.644;8.494;2023-04-22T10:27:39;99497.03;;;24.57;38.76
16355;BME280;8287;51.644;8.494;2023-04-22T10:30:08;99500.25;;;24.49;39.35
16355;BME280;8287;51.644;8.494;2023-04-22T10:32:35;99497.47;;;24.56;39.39
16355;BME280;8287;51.644;8.494;2023-04-22T10:35:11;99486.16;;;24.61;39.75
16355;BME280;8287;51.644;8.494;2023-04-22T10:37:42;99501.97;;;24.62;40.69
16355;BME280;8287;51.644;8.494;2023-04-22T10:40:13;99485.84;;;24.75;39.68
16355;BME280;8287;51.644;8.494;2023-04-22T10:42:41;99496.00;;;24.71;39.17
16355;BME280;8287;51.644;8.494;2023-04-22T10:45:12;99486.22;;;24.57;38.42
16355;BME280;8287;51.644;8.494;2023-04-22T10:47:40;99482.91;;;24.46;39.35
16355;BME280;8287;51.644;8.494;2023-04-22T10:50:20;99485.38;;;24.60;39.84
16355;BME280;8287;51.644;8.494;2023-04-22T10:52:49;99483.66;;;24.47;40.60
16355;BME280;8287;51.644;8.494;2023-04-22T10:55:16;99488.63;;;24.71;40.50
16355;BME280;8287;51.644;8.494;2023-04-22T10:57:44;99480.06;;;24.73;39.70
16355;BME280;8287;51.644;8.494;2023-04-22T11:00:29;99480.19;;;24.85;37.86
16355;BME280;8287;51.644;8.494;2023-04-22T11:03:07;99467.44;;;24.86;38.33
16355;BME280;8287;51.644;8.494;2023-04-22T11:05:36;99467.09;;;25.00;38.75
16355;BME280;8287;51.644;8.494;2023-04-22T11:08:05;99467.13;;;25.16;40.08
16355;BME280;8287;51.644;8.494;2023-04-22T11:10:35;99453.88;;;24.86;40.31
16355;BME280;8287;51.644;8.494;2023-04-22T11:13:05;99454.47;;;24.93;40.77
16355;BME280;8287;51.644;8.494;2023-04-22T11:15:34;99458.50;;;25.21;39.89
16355;BME280;8287;51.644;8.494;2023-04-22T11:18:01;99463.22;;;25.17;39.91
16355;BME280;8287;51.644;8.494;2023-04-22T11:20:28;99460.19;;;25.15;39.49
16355;BME280;8287;51.644;8.494;2023-04-22T11:22:56;99448.28;;;25.60;38.62
16355;BME280;8287;51.644;8.494;2023-04-22T11:25:24;99446.81;;;25.88;39.70
16355;BME280;8287;51.644;8.494;2023-04-22T11:27:51;99453.78;;;25.89;41.33
16355;BME280;8287;51.644;8.494;2023-04-22T11:30:20;99434.50;;;25.83;39.62
16355;BME280;8287;51.644;8.494;2023-04-22T11:32:48;99444.75;;;25.76;39.07
16355;BME280;8287;51.644;8.494;2023-04-22T11:35:17;99440.81;;;26.37;38.02
16355;BME280;8287;51.644;8.494;2023-04-22T11:37:45;99440.91;;;26.62;37.76
16355;BME280;8287;51.644;8.494;2023-04-22T11:40:17;99436.56;;;26.65;39.04
16355;BME280;8287;51.644;8.494;2023-04-22T11:42:44;99440.63;;;26.98;36.54
16355;BME280;8287;51.644;8.494;2023-04-22T11:45:11;99459.97;;;26.87;34.78
16355;BME280;8287;51.644;8.494;2023-04-22T11:47:39;99452.47;;;26.91;34.87
16355;BME280;8287;51.644;8.494;2023-04-22T11:50:08;99455.84;;;26.95;35.70
16355;BME280;8287;51.644;8.494;2023-04-22T11:52:44;99454.63;;;26.96;35.35
16355;BME280;8287;51.644;8.494;2023-04-22T11:55:12;99452.41;;;26.54;37.52
16355;BME280;8287;51.644;8.494;2023-04-22T11:57:40;99450.47;;;26.67;37.17
16355;BME280;8287;51.644;8.494;2023-04-22T12:00:11;99440.63;;;27.23;35.21
16355;BME280;8287;51.644;8.494;2023-04-22T12:02:39;99446.06;;;26.98;34.38
16355;BME280;8287;51.644;8.494;2023-04-22T12:05:09;99450.44;;;27.20;35.17
16355;BME280;8287;51.644;8.494;2023-04-22T12:07:37;99445.16;;;27.51;36.54
16355;BME280;8287;51.644;8.494;2023-04-22T12:10:05;99432.94;;;27.68;35.47
16355;BME280;8287;51.644;8.494;2023-04-22T12:12:32;99438.25;;;27.84;34.74
16355;BME280;8287;51.644;8.494;2023-04-22T12:15:10;99427.56;;;27.18;34.68
16355;BME280;8287;51.644;8.494;2023-04-22T12:17:39;99444.78;;;27.15;34.61
16355;BME280;8287;51.644;8.494;2023-04-22T12:20:10;99433.78;;;27.31;34.46
16355;BME280;8287;51.644;8.494;2023-04-22T12:22:38;99437.78;;;27.39;34.25
16355;BME280;8287;51.644;8.494;2023-04-22T12:25:05;99437.00;;;27.38;33.64
16355;BME280;8287;51.644;8.494;2023-04-22T12:27:33;99426.66;;;27.58;33.68
16355;BME280;8287;51.644;8.494;2023-04-22T12:30:04;99428.28;;;27.56;32.45
16355;BME280;8287;51.644;8.494;2023-04-22T12:32:35;99419.81;;;27.54;32.81
16355;BME280;8287;51.644;8.494;2023-04-22T12:35:03;99420.13;;;27.56;33.71
16355;BME280;8287;51.644;8.494;2023-04-22T12:37:32;99413.31;;;27.73;32.14
16355;BME280;8287;51.644;8.494;2023-04-22T12:39:59;99419.13;;;27.96;34.53
16355;BME280;8287;51.644;8.494;2023-04-22T12:42:26;99421.56;;;28.15;32.18
16355;BME280;8287;51.644;8.494;2023-04-22T12:44:52;99412.41;;;28.09;31.67
16355;BME280;8287;51.644;8.494;2023-04-22T12:47:19;99406.34;;;27.84;34.71
16355;BME280;8287;51.644;8.494;2023-04-22T12:49:47;99416.22;;;27.91;31.62
16355;BME280;8287;51.644;8.494;2023-04-22T12:52:13;99407.56;;;28.05;32.55
16355;BME280;8287;51.644;8.494;2023-04-22T12:54:43;99401.22;;;28.08;32.41
16355;BME280;8287;51.644;8.494;2023-04-22T12:57:17;99397.34;;;28.17;31.71
16355;BME280;8287;51.644;8.494;2023-04-22T12:59:44;99404.25;;;27.88;31.10
16355;BME280;8287;51.644;8.494;2023-04-22T13:02:11;99398.56;;;27.95;31.48
16355;BME280;8287;51.644;8.494;2023-04-22T13:04:38;99397.59;;;28.32;32.75
16355;BME280;8287;51.644;8.494;2023-04-22T13:07:09;99406.88;;;28.65;31.24
16355;BME280;8287;51.644;8.494;2023-04-22T13:09:36;99401.06;;;28.54;32.30
16355;BME280;8287;51.644;8.494;2023-04-22T13:12:02;99390.44;;;28.25;30.28